createdAt,value
2022-09-06T00:00:17.105Z,20.90
2022-09-06T00:02:45.012Z,21.10
2022-09-06T00:05:13.145Z,21.40
2022-09-06T00:07:40.351Z,21.00
2022-09-06T00:10:08.283Z,21.00
2022-09-06T00:12:35.588Z,21.00
2022-09-06T00:15:04.046Z,21.00
2022-09-06T00:17:32.385Z,21.00
2022-09-06T00:19:59.145Z,21.40
2022-09-06T00:22:26.007Z,20.90
2022-09-06T00:24:52.787Z,20.90
2022-09-06T00:27:19.609Z,20.80
2022-09-06T00:29:46.377Z,20.80
2022-09-06T00:32:13.202Z,20.80
2022-09-06T00:34:39.984Z,21.00
2022-09-06T00:37:06.977Z,20.80
2022-09-06T00:39:33.802Z,20.80
2022-09-06T00:42:00.812Z,20.80
2022-09-06T00:44:27.622Z,20.80
2022-09-06T00:46:55.436Z,20.80
2022-09-06T00:49:27.497Z,20.90
2022-09-06T00:51:59.834Z,20.90
2022-09-06T00:54:27.087Z,21.00
2022-09-06T00:56:55.627Z,20.90
2022-09-06T00:59:25.916Z,21.00
2022-09-06T01:01:53.381Z,20.90
2022-09-06T01:04:20.378Z,20.90
2022-09-06T01:06:50.412Z,20.90
2022-09-06T01:09:26.832Z,21.10
2022-09-06T01:12:18.642Z,20.90
2022-09-06T01:15:04.891Z,20.90
2022-09-06T01:18:01.144Z,20.90
2022-09-06T01:21:01.741Z,20.80
2022-09-06T01:23:47.661Z,20.80
2022-09-06T01:26:14.428Z,20.70
2022-09-06T01:28:44.869Z,20.70
2022-09-06T01:31:29.549Z,20.90
2022-09-06T01:34:08.396Z,20.60
2022-09-06T01:37:08.435Z,20.50
2022-09-06T01:39:36.380Z,20.40
2022-09-06T01:42:06.300Z,20.30
2022-09-06T01:44:34.806Z,20.40
2022-09-06T01:47:13.772Z,20.30
2022-09-06T01:50:12.446Z,20.50
2022-09-06T01:52:58.107Z,20.40
2022-09-06T01:55:42.314Z,20.40
2022-09-06T01:58:09.029Z,20.30
2022-09-06T02:01:01.027Z,20.40
2022-09-06T02:03:36.792Z,20.30
2022-09-06T02:06:22.025Z,20.40
2022-09-06T02:08:54.493Z,20.20
2022-09-06T02:11:24.315Z,20.30
2022-09-06T02:13:56.079Z,20.20
2022-09-06T02:16:26.830Z,20.20
2022-09-06T02:19:19.846Z,20.30
2022-09-06T02:21:48.667Z,20.20
2022-09-06T02:24:21.694Z,20.90
2022-09-06T02:26:49.450Z,20.20
2022-09-06T02:29:17.343Z,20.10
2022-09-06T02:31:49.513Z,20.10
2022-09-06T02:34:18.948Z,20.00
2022-09-06T02:36:46.875Z,20.60
2022-09-06T02:39:13.714Z,20.00
2022-09-06T02:41:43.492Z,19.90
2022-09-06T02:44:10.467Z,20.30
2022-09-06T02:46:37.274Z,19.90
2022-09-06T02:49:04.124Z,20.10
2022-09-06T02:51:31.282Z,19.90
2022-09-06T02:53:58.088Z,20.40
2022-09-06T02:56:25.043Z,19.80
2022-09-06T02:58:51.946Z,19.80
2022-09-06T03:01:18.792Z,19.80
2022-09-06T03:03:45.752Z,19.80
2022-09-06T03:06:12.611Z,19.90
2022-09-06T03:08:39.508Z,19.80
2022-09-06T03:11:06.464Z,19.90
2022-09-06T03:13:33.473Z,19.80
2022-09-06T03:16:01.297Z,19.90
2022-09-06T03:18:30.534Z,19.70
2022-09-06T03:20:58.010Z,19.80
2022-09-06T03:23:27.373Z,20.40
2022-09-06T03:25:55.031Z,19.80
2022-09-06T03:28:22.793Z,19.90
2022-09-06T03:30:51.550Z,19.80
2022-09-06T03:33:19.685Z,20.10
2022-09-06T03:35:55.413Z,19.80
2022-09-06T03:38:23.517Z,19.80
2022-09-06T03:40:51.534Z,19.90
2022-09-06T03:43:19.600Z,19.80
2022-09-06T03:45:52.286Z,19.90
2022-09-06T03:48:22.478Z,19.80
2022-09-06T03:50:52.547Z,19.80
2022-09-06T03:53:20.136Z,19.80
2022-09-06T03:55:48.539Z,19.70
2022-09-06T03:58:16.670Z,19.80
2022-09-06T04:00:44.555Z,19.90
2022-09-06T04:03:11.881Z,19.80
2022-09-06T04:05:38.829Z,19.90
2022-09-06T04:08:06.158Z,19.90
2022-09-06T04:10:33.807Z,20.00
2022-09-06T04:13:00.783Z,20.70
2022-09-06T04:15:27.664Z,19.90
2022-09-06T04:17:54.571Z,20.00
2022-09-06T04:20:21.384Z,20.40
2022-09-06T04:22:48.190Z,20.00
2022-09-06T04:25:15.029Z,20.10
2022-09-06T04:27:41.813Z,20.00
2022-09-06T04:30:09.149Z,20.10
2022-09-06T04:32:36.011Z,20.10
2022-09-06T04:35:02.957Z,20.10
2022-09-06T04:37:29.780Z,19.90
2022-09-06T04:39:56.900Z,20.00
2022-09-06T04:42:23.780Z,20.10
2022-09-06T04:44:50.625Z,20.10
2022-09-06T04:47:19.255Z,22.20
2022-09-06T04:49:46.826Z,20.10
2022-09-06T04:52:13.707Z,20.10
2022-09-06T04:54:40.678Z,20.00
2022-09-06T04:57:08.175Z,20.00
2022-09-06T04:59:35.163Z,20.00
2022-09-06T05:02:02.092Z,20.10
2022-09-06T05:04:28.963Z,20.60
2022-09-06T05:07:07.393Z,20.10
2022-09-06T05:09:35.108Z,20.00
2022-09-06T05:12:02.256Z,20.00
2022-09-06T05:14:29.323Z,19.90
2022-09-06T05:16:56.817Z,20.60
2022-09-06T05:19:23.681Z,20.40
2022-09-06T05:21:53.602Z,20.00
2022-09-06T05:24:20.459Z,20.10
2022-09-06T05:26:47.278Z,20.10
2022-09-06T05:29:14.098Z,20.30
2022-09-06T05:31:41.010Z,20.50
2022-09-06T05:34:07.883Z,20.30
2022-09-06T05:36:35.559Z,20.40
2022-09-06T05:39:02.390Z,20.40
2022-09-06T05:41:29.269Z,20.50
2022-09-06T05:43:56.042Z,21.10
2022-09-06T05:46:24.483Z,20.70
2022-09-06T05:48:56.214Z,20.60
2022-09-06T05:51:23.003Z,20.60
2022-09-06T05:53:49.976Z,20.70
2022-09-06T05:56:17.312Z,20.80
2022-09-06T05:58:44.199Z,20.80
2022-09-06T06:01:21.529Z,22.00
2022-09-06T06:03:57.328Z,20.80
2022-09-06T06:06:25.608Z,21.10
2022-09-06T06:08:52.640Z,20.80
2022-09-06T06:11:19.760Z,20.70
2022-09-06T06:13:46.680Z,20.70
2022-09-06T06:16:16.231Z,20.80
2022-09-06T06:18:47.640Z,20.70
2022-09-06T06:21:21.690Z,20.70
2022-09-06T06:23:55.178Z,20.80
2022-09-06T06:26:22.785Z,20.80
2022-09-06T06:28:49.616Z,20.70
2022-09-06T06:31:16.730Z,20.60
2022-09-06T06:33:44.384Z,20.80
2022-09-06T06:36:14.310Z,20.80
2022-09-06T06:38:42.976Z,20.80
2022-09-06T06:41:13.153Z,20.90
2022-09-06T06:43:40.106Z,21.00
2022-09-06T06:46:08.515Z,21.00
2022-09-06T06:48:36.652Z,21.20
2022-09-06T06:51:04.221Z,21.30
2022-09-06T06:53:31.099Z,21.40
2022-09-06T06:55:58.046Z,21.40
2022-09-06T06:58:25.159Z,21.40
2022-09-06T07:00:52.079Z,21.40
2022-09-06T07:03:19.255Z,23.00
2022-09-06T07:08:34.964Z,22.00
2022-09-06T07:11:02.794Z,21.60
2022-09-06T07:13:30.026Z,21.90
2022-09-06T07:16:18.535Z,22.10
2022-09-06T07:18:46.025Z,22.50
2022-09-06T07:24:08.631Z,22.70
2022-09-06T07:26:38.522Z,23.10
2022-09-06T07:29:06.376Z,23.70
2022-09-06T07:34:21.080Z,24.30
2022-09-06T07:36:48.511Z,24.20
2022-09-06T07:39:15.521Z,24.20
2022-09-06T07:41:43.335Z,24.20
2022-09-06T07:44:10.472Z,24.40
2022-09-06T07:46:37.631Z,24.40
2022-09-06T07:49:05.871Z,24.80
2022-09-06T07:51:33.113Z,24.90
2022-09-06T07:54:26.211Z,25.20
2022-09-06T07:56:46.940Z,25.70
2022-09-06T07:59:13.849Z,25.40
2022-09-06T08:01:41.300Z,25.50
2022-09-06T08:04:10.494Z,25.80
2022-09-06T08:09:26.260Z,25.50
2022-09-06T08:11:53.094Z,25.70
2022-09-06T08:14:20.464Z,25.80
2022-09-06T08:16:47.628Z,25.90
2022-09-06T08:19:14.627Z,26.20
2022-09-06T08:21:41.491Z,26.50
2022-09-06T08:24:12.525Z,26.30
2022-09-06T08:26:40.874Z,26.30
2022-09-06T08:29:09.016Z,26.30
2022-09-06T08:31:38.613Z,25.80
2022-09-06T08:34:06.217Z,25.60
2022-09-06T08:36:33.677Z,25.90
2022-09-06T08:39:05.360Z,25.90
2022-09-06T08:41:53.283Z,26.10
2022-09-06T08:47:22.547Z,26.50
2022-09-06T08:50:03.571Z,26.90
2022-09-06T08:52:49.372Z,27.20
2022-09-06T08:55:28.904Z,27.30
2022-09-06T08:58:06.352Z,27.00
2022-09-06T09:00:35.161Z,27.30
2022-09-06T09:03:16.047Z,27.30
2022-09-06T09:05:47.032Z,27.40
2022-09-06T09:08:32.307Z,27.40
2022-09-06T09:11:02.741Z,27.80
2022-09-06T09:13:47.746Z,28.20
2022-09-06T09:16:18.263Z,28.70
2022-09-06T09:18:52.769Z,29.00
2022-09-06T09:21:30.123Z,29.10
2022-09-06T09:24:01.918Z,28.80
2022-09-06T09:26:35.580Z,28.40
2022-09-06T09:29:04.915Z,28.30
2022-09-06T09:31:43.624Z,28.20
2022-09-06T09:34:27.134Z,28.20
2022-09-06T09:37:51.054Z,27.80
2022-09-06T09:40:20.287Z,27.70
2022-09-06T09:42:47.179Z,27.90
2022-09-06T09:45:20.179Z,27.90
2022-09-06T09:47:47.451Z,27.70
2022-09-06T09:50:33.516Z,27.30
2022-09-06T09:53:19.640Z,26.90
2022-09-06T09:55:47.093Z,26.50
2022-09-06T09:58:32.308Z,26.50
2022-09-06T10:01:13.150Z,26.00
2022-09-06T10:09:19.179Z,25.00
2022-09-06T10:11:55.453Z,24.50
2022-09-06T10:14:30.310Z,24.40
2022-09-06T10:16:58.239Z,24.30
2022-09-06T10:19:42.069Z,24.20
2022-09-06T10:22:23.470Z,23.60
2022-09-06T10:25:08.530Z,22.70
2022-09-06T10:27:36.125Z,21.90
2022-09-06T10:30:09.638Z,21.70
2022-09-06T10:32:51.557Z,21.50
2022-09-06T10:35:31.016Z,21.60
2022-09-06T10:38:10.620Z,21.70
2022-09-06T10:40:40.045Z,21.70
2022-09-06T10:43:10.149Z,21.80
2022-09-06T10:45:43.137Z,21.80
2022-09-06T10:48:19.198Z,21.60
2022-09-06T10:50:57.569Z,21.70
2022-09-06T10:53:46.597Z,21.90
2022-09-06T10:56:21.024Z,21.90
2022-09-06T11:01:53.475Z,21.80
2022-09-06T11:10:38.316Z,22.00
2022-09-06T11:13:23.238Z,21.80
2022-09-06T11:16:15.930Z,21.80
2022-09-06T11:18:42.729Z,22.10
2022-09-06T11:21:26.404Z,22.70
2022-09-06T11:24:17.014Z,22.60
2022-09-06T11:27:25.183Z,22.50
2022-09-06T11:29:56.550Z,22.80
2022-09-06T11:32:38.148Z,22.90
2022-09-06T11:35:10.143Z,22.90
2022-09-06T11:37:43.823Z,23.00
2022-09-06T11:40:28.433Z,23.30
2022-09-06T11:42:55.663Z,23.30
2022-09-06T11:45:46.142Z,23.10
2022-09-06T11:48:34.006Z,23.30
2022-09-06T11:51:10.833Z,23.80
2022-09-06T11:53:50.024Z,25.40
2022-09-06T11:56:29.681Z,25.60
2022-09-06T11:59:10.953Z,26.00
2022-09-06T12:01:39.243Z,27.20
2022-09-06T12:04:08.309Z,28.10
2022-09-06T12:06:43.803Z,28.90
2022-09-06T12:09:30.898Z,29.10
2022-09-06T12:11:59.548Z,29.20
2022-09-06T12:14:42.658Z,29.80
2022-09-06T12:17:09.880Z,29.60
2022-09-06T12:19:54.992Z,28.90
2022-09-06T12:22:31.847Z,27.90
2022-09-06T12:25:16.790Z,27.90
2022-09-06T12:27:58.803Z,28.60
2022-09-06T12:30:37.341Z,28.80
2022-09-06T12:33:36.203Z,28.20
2022-09-06T12:36:13.621Z,27.90
2022-09-06T12:38:41.128Z,28.00
2022-09-06T12:41:08.904Z,28.30
2022-09-06T12:43:39.298Z,28.40
2022-09-06T12:46:07.980Z,28.10
2022-09-06T12:48:41.245Z,28.50
2022-09-06T12:51:20.205Z,28.40
2022-09-06T12:53:55.320Z,29.30
2022-09-06T12:56:24.337Z,28.10
2022-09-06T12:58:51.241Z,27.90
2022-09-06T13:01:24.416Z,28.10
2022-09-06T13:04:25.140Z,28.00
2022-09-06T13:06:52.335Z,28.10
2022-09-06T13:09:21.706Z,28.20
2022-09-06T13:11:52.979Z,28.20
2022-09-06T13:14:28.028Z,28.00
2022-09-06T13:16:58.500Z,27.80
2022-09-06T13:19:37.529Z,27.40
2022-09-06T13:22:07.673Z,27.50
2022-09-06T13:24:34.454Z,27.20
2022-09-06T13:27:21.594Z,26.80
2022-09-06T13:30:09.192Z,27.10
2022-09-06T13:32:45.352Z,27.10
2022-09-06T13:35:23.960Z,27.30
2022-09-06T13:37:51.028Z,27.50
2022-09-06T13:41:15.993Z,27.70
2022-09-06T13:43:45.395Z,28.30
2022-09-06T13:46:12.541Z,28.70
2022-09-06T13:48:39.942Z,29.00
2022-09-06T13:51:08.823Z,29.20
2022-09-06T13:53:36.040Z,29.80
2022-09-06T13:56:03.589Z,30.80
2022-09-06T13:58:30.514Z,31.50
2022-09-06T14:00:58.373Z,31.30
2022-09-06T14:03:31.148Z,31.30
2022-09-06T14:05:58.980Z,31.50
2022-09-06T14:08:38.484Z,31.60
2022-09-06T14:11:14.050Z,31.80
2022-09-06T14:13:40.919Z,31.80
2022-09-06T14:16:07.718Z,31.80
2022-09-06T14:18:35.229Z,31.80
2022-09-06T14:21:02.064Z,31.10
2022-09-06T14:23:29.550Z,30.60
2022-09-06T14:25:57.089Z,29.30
2022-09-06T14:28:25.029Z,28.80
2022-09-06T14:30:52.386Z,28.70
2022-09-06T14:33:21.301Z,28.80
2022-09-06T14:35:48.509Z,28.80
2022-09-06T14:38:16.598Z,29.00
2022-09-06T14:40:46.590Z,29.20
2022-09-06T14:43:13.385Z,29.40
2022-09-06T14:45:40.173Z,29.20
2022-09-06T14:48:07.200Z,29.10
2022-09-06T14:50:34.503Z,29.20
2022-09-06T14:53:02.067Z,29.30
2022-09-06T14:55:30.457Z,29.30
2022-09-06T14:57:58.883Z,29.30
2022-09-06T15:00:25.728Z,29.10
2022-09-06T15:02:52.647Z,28.90
2022-09-06T15:05:19.500Z,28.90
2022-09-06T15:07:46.706Z,28.50
2022-09-06T15:10:13.536Z,28.20
2022-09-06T15:12:40.389Z,27.30
2022-09-06T15:15:08.220Z,27.00
2022-09-06T15:17:35.244Z,26.80
2022-09-06T15:20:02.332Z,26.80
2022-09-06T15:22:29.209Z,27.00
2022-09-06T15:24:58.475Z,27.60
2022-09-06T15:27:25.350Z,28.10
2022-09-06T15:29:52.143Z,28.60
2022-09-06T15:32:18.911Z,29.00
2022-09-06T15:34:45.657Z,29.10
2022-09-06T15:37:12.456Z,28.80
2022-09-06T15:39:39.323Z,28.60
2022-09-06T15:42:06.289Z,28.70
2022-09-06T15:44:35.671Z,28.50
2022-09-06T15:47:02.461Z,27.90
2022-09-06T15:49:34.049Z,27.50
2022-09-06T15:52:03.324Z,27.00
2022-09-06T15:54:48.805Z,26.90
2022-09-06T15:57:17.263Z,27.10
2022-09-06T15:59:44.531Z,27.00
2022-09-06T16:02:12.002Z,26.80
2022-09-06T16:04:39.221Z,26.40
2022-09-06T16:07:07.188Z,26.00
2022-09-06T16:09:34.106Z,25.90
2022-09-06T16:12:01.001Z,25.70
2022-09-06T16:14:29.413Z,25.80
2022-09-06T16:16:57.431Z,25.50
2022-09-06T16:19:25.983Z,25.20
2022-09-06T16:21:53.054Z,25.50
2022-09-06T16:24:20.205Z,25.70
2022-09-06T16:26:47.655Z,25.70
2022-09-06T16:29:18.219Z,25.20
2022-09-06T16:31:48.205Z,25.00
2022-09-06T16:34:15.772Z,25.10
2022-09-06T16:36:42.617Z,25.40
2022-09-06T16:39:09.965Z,25.60
2022-09-06T16:41:45.785Z,25.70
2022-09-06T16:44:16.970Z,26.10
2022-09-06T16:46:49.642Z,25.80
2022-09-06T16:49:19.239Z,25.80
2022-09-06T16:51:48.640Z,25.60
2022-09-06T16:54:18.802Z,25.70
2022-09-06T16:56:46.738Z,25.80
2022-09-06T16:59:17.548Z,25.80
2022-09-06T17:01:45.620Z,25.80
2022-09-06T17:04:13.192Z,25.80
2022-09-06T17:06:44.706Z,25.80
2022-09-06T17:09:14.353Z,25.80
2022-09-06T17:11:41.585Z,25.70
2022-09-06T17:14:10.026Z,25.60
2022-09-06T17:16:56.957Z,25.60
2022-09-06T17:19:23.855Z,25.50
2022-09-06T17:21:51.892Z,25.50
2022-09-06T17:24:18.825Z,25.20
2022-09-06T17:26:47.247Z,24.80
2022-09-06T17:29:14.096Z,24.50
2022-09-06T17:31:41.124Z,24.10
2022-09-06T17:34:08.101Z,23.90
2022-09-06T17:36:35.951Z,23.70
2022-09-06T17:39:08.170Z,23.60
2022-09-06T17:41:40.945Z,23.20
2022-09-06T17:44:12.781Z,23.20
2022-09-06T17:46:51.905Z,23.00
2022-09-06T17:49:24.723Z,22.90
2022-09-06T17:51:52.152Z,22.80
2022-09-06T17:54:19.150Z,22.90
2022-09-06T17:56:46.053Z,22.90
2022-09-06T17:59:14.176Z,22.90
2022-09-06T18:01:43.364Z,22.80
2022-09-06T18:04:11.847Z,23.00
2022-09-06T18:06:41.249Z,23.00
2022-09-06T18:09:10.887Z,22.90
2022-09-06T18:11:39.818Z,23.00
2022-09-06T18:14:12.125Z,23.10
2022-09-06T18:16:40.499Z,23.10
2022-09-06T18:19:08.909Z,23.20
2022-09-06T18:21:38.968Z,23.00
2022-09-06T18:24:06.764Z,22.90
2022-09-06T18:26:33.808Z,22.80
2022-09-06T18:29:00.836Z,22.40
2022-09-06T18:31:28.458Z,22.00
2022-09-06T18:33:59.124Z,21.70
2022-09-06T18:36:31.125Z,21.50
2022-09-06T18:39:02.919Z,21.60
2022-09-06T18:41:48.631Z,21.60
2022-09-06T18:44:16.667Z,21.50
2022-09-06T18:46:43.968Z,21.60
2022-09-06T18:49:13.541Z,21.90
2022-09-06T18:51:41.153Z,21.20
2022-09-06T18:54:08.049Z,21.20
2022-09-06T18:56:34.966Z,21.20
2022-09-06T18:59:02.231Z,21.20
2022-09-06T19:01:30.483Z,21.40
2022-09-06T19:03:58.174Z,21.50
2022-09-06T19:06:26.467Z,21.50
2022-09-06T19:08:53.954Z,21.40
2022-09-06T19:11:21.886Z,22.70
2022-09-06T19:13:52.696Z,21.60
2022-09-06T19:16:20.795Z,21.70
2022-09-06T19:18:47.901Z,21.70
2022-09-06T19:21:19.786Z,21.70
2022-09-06T19:23:56.941Z,21.60
2022-09-06T19:26:25.586Z,21.60
2022-09-06T19:28:53.704Z,21.60
2022-09-06T19:31:21.293Z,21.40
2022-09-06T19:33:49.575Z,21.30
2022-09-06T19:36:18.328Z,21.40
2022-09-06T19:39:03.177Z,21.50
2022-09-06T19:41:39.290Z,21.60
2022-09-06T19:44:08.627Z,21.20
2022-09-06T19:46:37.195Z,21.10
2022-09-06T19:49:05.248Z,21.20
2022-09-06T19:51:33.127Z,21.30
2022-09-06T19:54:00.453Z,22.00
2022-09-06T19:56:33.366Z,21.30
2022-09-06T19:59:10.521Z,21.30
2022-09-06T20:01:39.762Z,21.20
2022-09-06T20:04:09.243Z,21.30
2022-09-06T20:06:36.393Z,21.30
2022-09-06T20:09:06.853Z,21.30
2022-09-06T20:11:35.426Z,21.30
2022-09-06T20:14:02.528Z,21.30
2022-09-06T20:16:30.581Z,21.40
2022-09-06T20:19:01.550Z,21.40
2022-09-06T20:21:28.978Z,21.30
2022-09-06T20:23:57.716Z,21.10
2022-09-06T20:26:27.592Z,20.90
2022-09-06T20:28:56.335Z,21.70
2022-09-06T20:31:23.776Z,20.90
2022-09-06T20:33:50.760Z,21.00
2022-09-06T20:36:18.500Z,20.90
2022-09-06T20:38:46.603Z,20.80
2022-09-06T20:41:17.185Z,20.90
2022-09-06T20:43:44.837Z,21.30
2022-09-06T20:46:18.419Z,21.00
2022-09-06T20:48:46.761Z,20.90
2022-09-06T20:51:18.691Z,21.00
2022-09-06T20:53:48.005Z,21.50
2022-09-06T20:56:20.594Z,21.00
2022-09-06T20:58:49.312Z,20.80
2022-09-06T21:01:22.440Z,20.80
2022-09-06T21:03:51.907Z,20.80
2022-09-06T21:06:20.488Z,20.60
2022-09-06T21:08:48.511Z,20.30
2022-09-06T21:11:15.344Z,20.40
2022-09-06T21:13:42.478Z,20.50
2022-09-06T21:16:09.511Z,21.00
2022-09-06T21:18:36.540Z,20.80
2022-09-06T21:21:06.168Z,20.80
2022-09-06T21:23:38.567Z,20.70
2022-09-06T21:26:06.623Z,21.00
2022-09-06T21:28:38.134Z,20.80
2022-09-06T21:31:13.665Z,20.80
2022-09-06T21:33:43.388Z,20.80
2022-09-06T21:36:13.788Z,20.80
2022-09-06T21:38:45.451Z,20.80
2022-09-06T21:41:13.854Z,20.80
2022-09-06T21:43:41.330Z,20.80
2022-09-06T21:46:14.068Z,20.80
2022-09-06T21:48:43.799Z,20.70
2022-09-06T21:51:15.113Z,20.80
2022-09-06T21:53:47.987Z,20.90
2022-09-06T21:56:16.502Z,20.60
2022-09-06T21:58:44.632Z,20.50
2022-09-06T22:01:11.570Z,20.40
2022-09-06T22:03:40.372Z,20.30
2022-09-06T22:06:12.121Z,20.40
2022-09-06T22:08:41.806Z,20.50
2022-09-06T22:11:32.041Z,20.40
2022-09-06T22:14:05.486Z,20.30
2022-09-06T22:16:34.993Z,20.20
2022-09-06T22:19:04.722Z,20.30
2022-09-06T22:21:33.031Z,20.20
2022-09-06T22:24:03.269Z,20.70
2022-09-06T22:26:31.648Z,20.10
2022-09-06T22:29:03.811Z,20.10
2022-09-06T22:31:31.978Z,20.10
2022-09-06T22:33:59.469Z,20.30
2022-09-06T22:36:27.031Z,20.60
2022-09-06T22:38:57.618Z,20.10
2022-09-06T22:41:26.482Z,20.30
2022-09-06T22:43:53.576Z,20.10
2022-09-06T22:46:20.508Z,20.10
2022-09-06T22:48:47.643Z,20.00
2022-09-06T22:51:14.521Z,20.30
2022-09-06T22:53:41.420Z,20.30
2022-09-06T22:56:08.266Z,19.90
2022-09-06T22:58:38.021Z,19.80
2022-09-06T23:01:11.818Z,19.90
2022-09-06T23:03:38.907Z,19.70
2022-09-06T23:06:06.111Z,19.50
2022-09-06T23:08:34.963Z,19.40
2022-09-06T23:11:10.752Z,19.20
2022-09-06T23:13:37.843Z,19.70
2022-09-06T23:16:07.083Z,19.30
2022-09-06T23:18:34.598Z,19.40
2022-09-06T23:21:08.922Z,19.50
2022-09-06T23:23:36.734Z,19.40
2022-09-06T23:26:08.333Z,19.50
2022-09-06T23:28:36.205Z,19.40
2022-09-06T23:31:04.715Z,19.40
2022-09-06T23:33:33.798Z,19.20
2022-09-06T23:36:00.536Z,19.00
2022-09-06T23:38:27.767Z,19.00
2022-09-06T23:40:54.670Z,19.10
2022-09-06T23:43:21.919Z,19.10
2022-09-06T23:45:48.752Z,19.20
2022-09-06T23:48:15.839Z,19.30
2022-09-06T23:50:46.577Z,19.40
2022-09-06T23:53:15.120Z,19.40
2022-09-06T23:55:42.572Z,19.30
2022-09-06T23:58:09.740Z,19.30
